Time;durP1;ratioP1;P1;durP2;ratioP2;P2;SDS_P1;SDS_P2;PMS_P1;PMS_P2;Temp;Humidity;BMP_temperature;BMP_pressure;BME280_temperature;BME280_humidity;BME280_pressure;Samples;Min_cycle;Max_cycle;Signal;HPM_P1;HPM_P2
2023/04/12 00:00:14;;;;;;;4.07;2.40;;;;;;;7.01;61.52;98872.84;5065362;28;20049;-69
2023/04/12 00:02:42;;;;;;;3.22;2.40;;;;;;;7.02;61.63;98863.16;5065434;28;20044;-69
2023/04/12 00:05:10;;;;;;;3.83;2.47;;;;;;;7.04;61.71;98863.94;5065325;28;20051;-70
2023/04/12 00:07:38;;;;;;;3.80;2.78;;;;;;;7.03;61.73;98859.59;5065476;28;20041;-70
2023/04/12 00:10:08;;;;;;;4.60;2.70;;;;;;;7.01;61.98;98859.66;5065281;28;20055;-70
2023/04/12 00:12:35;;;;;;;4.03;2.58;;;;;;;7.04;61.80;98850.78;5065913;28;20065;-70
2023/04/12 00:15:01;;;;;;;4.00;2.55;;;;;;;6.98;61.92;98841.38;5065212;28;20048;-70
2023/04/12 00:17:28;;;;;;;4.22;3.35;;;;;;;6.86;62.03;98809.50;5065680;28;20163;-70
2023/04/12 00:19:56;;;;;;;4.10;2.58;;;;;;;7.02;62.08;98834.19;5065521;28;20048;-70
2023/04/12 00:22:22;;;;;;;3.58;2.45;;;;;;;6.61;62.08;98796.66;5065572;28;20056;-70
2023/04/12 00:24:49;;;;;;;4.88;3.15;;;;;;;6.97;62.08;98842.31;5065339;28;20059;-70
2023/04/12 00:27:17;;;;;;;3.40;2.20;;;;;;;6.77;62.13;98802.03;5065632;28;20056;-71
2023/04/12 00:29:44;;;;;;;3.35;2.55;;;;;;;6.95;62.10;98833.63;5065635;28;20053;-70
2023/04/12 00:32:11;;;;;;;3.47;2.40;;;;;;;6.96;62.17;98827.44;5065318;28;20052;-70
2023/04/12 00:34:37;;;;;;;4.03;2.65;;;;;;;6.28;62.19;98709.63;5066301;28;20075;-70
2023/04/12 00:37:04;;;;;;;4.15;2.30;;;;;;;5.59;62.02;98612.09;5065802;28;20044;-70
2023/04/12 00:39:31;;;;;;;3.95;2.72;;;;;;;6.10;62.03;98688.50;5067853;28;20036;-70
2023/04/12 00:41:57;;;;;;;3.33;2.35;;;;;;;6.93;62.12;98808.28;5069635;28;20059;-70
2023/04/12 00:44:25;;;;;;;4.47;2.72;;;;;;;6.90;62.02;98811.91;5069631;28;20040;-69
2023/04/12 00:46:53;;;;;;;3.92;2.45;;;;;;;6.93;61.94;98805.66;5069896;28;20044;-69
2023/04/12 00:49:20;;;;;;;5.18;2.50;;;;;;;6.94;61.91;98812.63;5069579;28;20090;-70
2023/04/12 00:51:46;;;;;;;4.60;2.33;;;;;;;6.92;61.91;98809.22;5069238;28;20056;-70
2023/04/12 00:54:16;;;;;;;3.10;2.20;;;;;;;6.88;62.12;98813.78;5069565;28;20301;-70
2023/04/12 00:56:43;;;;;;;3.55;2.35;;;;;;;6.84;62.31;98804.31;5069217;28;20103;-69
2023/04/12 00:59:10;;;;;;;4.03;2.90;;;;;;;6.41;62.58;98739.69;5069286;28;20099;-70
2023/04/12 01:01:39;;;;;;;3.47;2.35;;;;;;;6.59;62.80;98769.53;5069508;28;20103;-70
2023/04/12 01:04:08;;;;;;;4.32;2.83;;;;;;;6.37;62.81;98741.59;5069033;28;20204;-70
2023/04/12 01:06:48;;;;;;;4.50;2.80;;;;;;;6.74;63.40;98800.41;5069446;28;20053;-69
2023/04/12 01:09:23;;;;;;;4.13;2.70;;;;;;;6.51;63.46;98759.38;5069530;28;20274;-70
2023/04/12 01:12:01;;;;;;;4.03;2.55;;;;;;;6.73;63.66;98798.69;5069020;28;20047;-70
2023/04/12 01:14:41;;;;;;;4.60;2.65;;;;;;;6.24;63.32;98705.44;5068948;28;20037;-69
2023/04/12 01:17:16;;;;;;;4.90;2.97;;;;;;;6.72;63.63;98781.19;5069300;28;20065;-68
2023/04/12 01:19:56;;;;;;;4.07;2.63;;;;;;;6.52;63.75;98747.91;5068833;28;20058;-69
2023/04/12 01:22:53;;;;;;;3.35;2.58;;;;;;;6.68;64.03;98777.00;5069277;28;20099;-69
2023/04/12 01:25:38;;;;;;;4.50;2.70;;;;;;;6.64;63.64;98783.34;5068626;28;20305;-69
2023/04/12 01:28:08;;;;;;;3.05;2.40;;;;;;;6.60;63.44;98772.09;5068935;28;20112;-68
2023/04/12 01:30:37;;;;;;;4.00;2.78;;;;;;;6.61;63.27;98776.44;5069098;28;20036;-69
2023/04/12 01:33:08;;;;;;;4.45;3.25;;;;;;;6.62;63.29;98786.03;5068784;28;20040;-68
2023/04/12 01:35:35;;;;;;;4.13;3.05;;;;;;;6.62;63.19;98778.13;5068713;28;20204;-68
2023/04/12 01:38:03;;;;;;;3.50;2.30;;;;;;;6.61;63.14;98773.81;5068702;28;20053;-69
2023/04/12 01:40:31;;;;;;;3.92;2.65;;;;;;;6.40;63.09;98740.59;5069154;28;20228;-69
2023/04/12 01:43:06;;;;;;;3.33;2.50;;;;;;;6.58;63.40;98787.13;5068260;28;20068;-69
2023/04/12 01:45:33;;;;;;;5.07;2.70;;;;;;;6.57;63.16;98780.13;5068255;28;20044;-68
2023/04/12 01:48:01;;;;;;;4.03;2.72;;;;;;;6.54;63.23;98780.28;5068219;28;20037;-69
2023/04/12 01:50:35;;;;;;;6.10;3.10;;;;;;;6.29;63.32;98741.13;5067613;28;20063;-68
2023/04/12 01:53:07;;;;;;;5.13;2.60;;;;;;;6.47;63.53;98775.38;5068091;28;20095;-68
2023/04/12 01:55:37;;;;;;;4.50;3.20;;;;;;;6.45;63.76;98774.59;5068074;28;20041;-68
2023/04/12 01:58:07;;;;;;;4.53;2.83;;;;;;;6.45;63.43;98772.81;5067877;28;20063;-68
2023/04/12 02:00:36;;;;;;;3.47;2.63;;;;;;;6.43;63.68;98766.78;5068181;28;20045;-68
2023/04/12 02:03:04;;;;;;;4.18;2.67;;;;;;;6.27;63.55;98747.38;5068118;28;20298;-68
2023/04/12 02:05:32;;;;;;;3.90;2.67;;;;;;;5.40;63.69;98610.31;5068382;28;20099;-68
2023/04/12 02:07:59;;;;;;;3.75;2.63;;;;;;;6.37;63.80;98769.69;5068057;28;20309;-68
2023/04/12 02:10:30;;;;;;;3.97;3.13;;;;;;;6.36;64.15;98760.09;5067761;28;20040;-70
2023/04/12 02:12:58;;;;;;;3.90;2.80;;;;;;;5.19;64.03;98573.66;5067645;28;20048;-68
2023/04/12 02:15:27;;;;;;;3.53;2.83;;;;;;;6.33;64.26;98762.88;5068173;28;20051;-69
2023/04/12 02:17:53;;;;;;;4.82;3.42;;;;;;;6.31;64.13;98764.72;5068198;28;20099;-68
2023/04/12 02:20:20;;;;;;;3.88;3.30;;;;;;;6.09;64.19;98722.78;5067561;28;20063;-69
2023/04/12 02:22:47;;;;;;;5.57;3.33;;;;;;;6.28;64.12;98763.09;5067812;28;20185;-69
2023/04/12 02:25:16;;;;;;;4.88;3.55;;;;;;;6.24;64.29;98763.31;5067770;28;20041;-69
2023/04/12 02:27:43;;;;;;;5.00;3.10;;;;;;;6.23;64.45;98757.19;5067564;28;20364;-69
2023/04/12 02:30:11;;;;;;;4.28;3.10;;;;;;;6.22;64.45;98755.50;5067982;28;20108;-69
2023/04/12 02:32:43;;;;;;;3.97;3.30;;;;;;;6.22;64.45;98757.28;5067951;28;20036;-70
2023/04/12 02:35:11;;;;;;;4.30;3.25;;;;;;;6.21;64.32;98750.31;5067597;28;20052;-69
2023/04/12 02:37:37;;;;;;;4.65;3.00;;;;;;;6.22;64.35;98750.22;5067858;28;20343;-69
2023/04/12 02:40:06;;;;;;;4.57;3.10;;;;;;;5.98;64.37;98710.13;5067172;28;20045;-70
2023/04/12 02:42:32;;;;;;;3.92;3.03;;;;;;;5.96;64.70;98704.09;5067090;28;20309;-69
2023/04/12 02:44:59;;;;;;;5.35;3.38;;;;;;;6.18;64.49;98750.44;5067149;28;20036;-69
2023/04/12 02:47:27;;;;;;;4.85;3.15;;;;;;;5.76;64.64;98683.13;5067353;28;20063;-69
2023/04/12 02:49:56;;;;;;;4.82;3.00;;;;;;;5.90;64.76;98712.28;5067077;28;20056;-69
2023/04/12 02:52:23;;;;;;;3.60;2.80;;;;;;;2.83;64.57;98191.63;5067282;28;20041;-69
2023/04/12 02:54:50;;;;;;;3.10;2.50;;;;;;;6.08;64.79;98740.34;5066947;28;20041;-69
2023/04/12 02:57:16;;;;;;;4.60;2.90;;;;;;;6.07;64.99;98743.91;5067172;28;20068;-69
2023/04/12 02:59:43;;;;;;;4.03;2.80;;;;;;;6.05;65.02;98744.91;5067102;28;20044;-68
2023/04/12 03:02:10;;;;;;;3.70;3.10;;;;;;;6.02;65.08;98748.53;5066466;28;20051;-69
2023/04/12 03:04:38;;;;;;;5.97;2.60;;;;;;;6.01;65.14;98749.44;5067332;28;20159;-69
2023/04/12 03:07:07;;;;;;;4.15;2.40;;;;;;;6.00;65.29;98745.13;5067270;28;20056;-69
2023/04/12 03:09:33;;;;;;;3.63;2.33;;;;;;;5.99;65.06;98748.66;5066929;28;20041;-70
2023/04/12 03:12:00;;;;;;;4.38;2.58;;;;;;;6.00;65.11;98736.38;5066597;28;20041;-70
2023/04/12 03:14:26;;;;;;;3.75;2.65;;;;;;;5.99;65.09;98748.66;5067096;28;20045;-69
2023/04/12 03:16:53;;;;;;;3.70;2.47;;;;;;;6.00;65.01;98744.25;5066524;28;20037;-69
2023/04/12 03:19:20;;;;;;;4.25;2.40;;;;;;;5.99;65.03;98746.03;5066802;28;20053;-69
2023/04/12 03:21:46;;;;;;;4.15;2.38;;;;;;;5.99;64.97;98742.56;5066253;28;20045;-69
2023/04/12 03:24:15;;;;;;;3.50;2.95;;;;;;;5.70;64.87;98693.94;5066885;28;20056;-69
2023/04/12 03:26:42;;;;;;;3.20;2.47;;;;;;;5.96;64.96;98737.44;5066297;28;20052;-69
2023/04/12 03:29:09;;;;;;;3.17;2.45;;;;;;;5.93;65.03;98748.09;5066554;28;20037;-69
2023/04/12 03:31:36;;;;;;;3.70;2.35;;;;;;;5.92;64.86;98738.50;5066345;28;20052;-69
2023/04/12 03:34:03;;;;;;;3.67;2.45;;;;;;;5.91;64.92;98735.03;5066388;28;20327;-69
2023/04/12 03:36:30;;;;;;;4.13;2.63;;;;;;;5.92;64.83;98726.19;5066409;28;20146;-69
2023/04/12 03:38:56;;;;;;;4.18;2.58;;;;;;;5.94;64.97;98728.75;5065982;28;20091;-69
2023/04/12 03:41:25;;;;;;;3.45;2.55;;;;;;;5.72;64.79;98687.69;5066036;28;20111;-69
2023/04/12 03:43:52;;;;;;;4.03;2.63;;;;;;;5.71;64.60;98687.75;5065829;28;20044;-68
2023/04/12 03:46:18;;;;;;;3.70;2.63;;;;;;;4.15;64.56;98429.50;5066580;28;20040;-71
2023/04/12 03:48:45;;;;;;;4.65;2.78;;;;;;;5.54;64.31;98677.16;5066436;28;20041;-70
2023/04/12 03:51:12;;;;;;;3.25;2.60;;;;;;;5.91;64.48;98713.97;5066234;28;20297;-70
2023/04/12 03:53:39;;;;;;;4.55;3.00;;;;;;;3.61;64.22;98334.91;5066351;28;20178;-70
2023/04/12 03:56:07;;;;;;;4.45;2.53;;;;;;;5.94;64.46;98731.41;5066302;28;20241;-70
2023/04/12 03:58:35;;;;;;;3.83;2.58;;;;;;;5.91;64.36;98716.59;5066318;28;20079;-70
2023/04/12 04:01:04;;;;;;;4.28;2.90;;;;;;;5.34;63.98;98626.34;5066103;28;20131;-70
2023/04/12 04:03:33;;;;;;;4.00;2.42;;;;;;;5.51;64.32;98664.16;5066340;28;20301;-70
2023/04/12 04:06:00;;;;;;;4.28;2.50;;;;;;;5.90;64.25;98721.94;5065647;28;20104;-70
2023/04/12 04:08:27;;;;;;;4.53;2.97;;;;;;;5.90;63.81;98733.31;5065604;28;20117;-70
2023/04/12 04:10:54;;;;;;;4.03;2.50;;;;;;;5.91;64.09;98726.28;5066175;28;20339;-70
2023/04/12 04:13:21;;;;;;;5.45;2.83;;;;;;;5.87;64.15;98725.56;5065981;28;20040;-70
2023/04/12 04:15:52;;;;;;;3.42;2.47;;;;;;;5.86;64.09;98720.38;5065817;28;20036;-70
2023/04/12 04:18:18;;;;;;;5.38;2.75;;;;;;;5.86;64.16;98715.13;5065824;28;20049;-70
2023/04/12 04:20:45;;;;;;;4.57;2.85;;;;;;;5.83;63.98;98718.75;5065773;28;20289;-70
2023/04/12 04:23:12;;;;;;;3.67;2.80;;;;;;;5.82;64.11;98714.41;5066255;28;20128;-70
2023/04/12 04:25:38;;;;;;;3.50;3.15;;;;;;;5.62;63.99;98683.75;5065721;28;20140;-70
2023/04/12 04:28:06;;;;;;;4.43;3.00;;;;;;;5.82;63.78;98714.41;5065651;28;20104;-70
2023/04/12 04:30:37;;;;;;;4.55;2.90;;;;;;;5.81;63.71;98715.31;5065522;28;20284;-70
2023/04/12 04:33:06;;;;;;;5.10;2.88;;;;;;;5.80;63.64;98713.63;5065586;28;20045;-70
2023/04/12 04:35:33;;;;;;;3.97;2.65;;;;;;;5.81;63.57;98715.31;5065731;28;20083;-70
2023/04/12 04:38:00;;;;;;;4.75;2.90;;;;;;;5.81;63.56;98719.72;5065439;28;20041;-70
2023/04/12 04:40:29;;;;;;;5.38;3.35;;;;;;;5.80;63.32;98721.50;5065128;28;20048;-69
2023/04/12 04:42:56;;;;;;;4.63;2.60;;;;;;;5.80;63.29;98724.13;5065158;28;20064;-70
2023/04/12 04:45:25;;;;;;;5.18;3.85;;;;;;;5.82;63.35;98742.47;5065662;28;20108;-69
2023/04/12 04:47:53;;;;;;;4.25;2.88;;;;;;;5.84;63.11;98722.22;5065431;28;20055;-70
2023/04/12 04:50:21;;;;;;;3.95;2.55;;;;;;;5.09;62.99;98588.97;5065309;28;20048;-69
2023/04/12 04:52:48;;;;;;;4.60;2.85;;;;;;;5.87;63.15;98715.03;5065536;28;20040;-70
2023/04/12 04:55:16;;;;;;;3.38;2.60;;;;;;;5.65;62.81;98725.69;5065070;28;20052;-70
2023/04/12 04:57:43;;;;;;;4.40;2.60;;;;;;;5.86;62.83;98715.97;5065688;28;20052;-70
2023/04/12 05:00:11;;;;;;;4.13;2.67;;;;;;;5.85;62.79;98727.41;5065192;28;20110;-70
2023/04/12 05:02:41;;;;;;;7.35;2.60;;;;;;;5.85;62.70;98711.63;5064852;28;20233;-69
2023/04/12 05:05:09;;;;;;;5.53;2.63;;;;;;;5.24;62.76;98606.69;5065501;28;20111;-70
2023/04/12 05:07:37;;;;;;;3.45;2.30;;;;;;;5.91;62.61;98723.66;5065482;28;20040;-70
2023/04/12 05:10:04;;;;;;;3.53;2.25;;;;;;;2.62;62.36;98167.22;5064962;28;20041;-70
2023/04/12 05:12:31;;;;;;;5.60;3.03;;;;;;;5.74;62.52;98690.25;5064767;28;20040;-69
2023/04/12 05:14:58;;;;;;;3.22;2.55;;;;;;;5.87;62.34;98716.81;5065159;28;20293;-70
2023/04/12 05:17:25;;;;;;;4.90;2.85;;;;;;;5.72;62.26;98690.31;5064897;28;20205;-70
2023/04/12 05:19:51;;;;;;;3.95;2.45;;;;;;;5.97;62.31;98733.88;5065022;28;20099;-70
2023/04/12 05:22:20;;;;;;;4.85;2.33;;;;;;;5.99;62.20;98743.41;5064846;28;20048;-70
2023/04/12 05:24:49;;;;;;;3.33;2.60;;;;;;;6.01;62.18;98735.44;5066360;28;20041;-70
2023/04/12 05:27:16;;;;;;;3.15;2.13;;;;;;;6.04;62.07;98743.19;5068752;28;20048;-70
2023/04/12 05:29:43;;;;;;;4.40;2.45;;;;;;;5.86;62.03;98700.19;5068938;28;20082;-70
2023/04/12 05:32:09;;;;;;;4.88;2.50;;;;;;;6.11;61.80;98739.34;5068193;28;20053;-70
2023/04/12 05:34:36;;;;;;;4.63;2.85;;;;;;;6.14;61.69;98741.00;5068426;28;20309;-70
2023/04/12 05:37:03;;;;;;;3.83;2.80;;;;;;;5.86;61.52;98687.03;5068356;28;20037;-70
2023/04/12 05:39:30;;;;;;;4.85;2.72;;;;;;;6.19;61.46;98737.22;5068422;28;20297;-70
2023/04/12 05:41:58;;;;;;;4.65;2.20;;;;;;;6.22;61.22;98729.19;5068223;28;20072;-70
2023/04/12 05:44:25;;;;;;;2.95;2.17;;;;;;;6.04;61.06;98706.38;5068462;28;20045;-70
2023/04/12 05:46:51;;;;;;;3.88;2.17;;;;;;;6.23;60.99;98730.03;5067566;28;20059;-70
2023/04/12 05:49:18;;;;;;;4.68;3.00;;;;;;;6.31;61.03;98738.41;5067874;28;20036;-69
2023/04/12 05:51:44;;;;;;;3.47;2.35;;;;;;;6.36;60.65;98736.41;5068658;28;20107;-70
2023/04/12 05:54:11;;;;;;;5.25;2.28;;;;;;;6.23;60.67;98703.72;5068228;28;20061;-69
2023/04/12 05:56:39;;;;;;;4.68;2.60;;;;;;;6.43;60.55;98736.06;5068293;28;20194;-70
2023/04/12 05:59:07;;;;;;;4.20;2.35;;;;;;;5.85;60.27;98618.75;5068373;28;20041;-70
2023/04/12 06:01:34;;;;;;;4.70;2.67;;;;;;;6.54;60.11;98735.53;5068277;28;20049;-70
2023/04/12 06:04:02;;;;;;;4.05;2.50;;;;;;;6.61;60.01;98734.31;5068120;28;20047;-69
2023/04/12 06:06:30;;;;;;;4.25;2.75;;;;;;;6.69;60.00;98739.19;5068325;28;20063;-70
2023/04/12 06:08:59;;;;;;;4.28;2.40;;;;;;;6.74;59.72;98735.41;5067812;28;20288;-70
2023/04/12 06:11:25;;;;;;;4.07;2.42;;;;;;;5.69;59.19;98548.47;5067913;28;20044;-69
2023/04/12 06:13:52;;;;;;;6.03;2.67;;;;;;;6.88;59.07;98741.81;5067674;28;20041;-70
2023/04/12 06:16:20;;;;;;;3.40;2.00;;;;;;;6.97;58.83;98734.28;5067910;28;20053;-70
2023/04/12 06:18:47;;;;;;;5.68;2.65;;;;;;;7.09;58.20;98729.34;5067829;28;20055;-70
2023/04/12 06:21:13;;;;;;;3.30;2.33;;;;;;;7.27;57.87;98731.88;5067658;28;20041;-70
2023/04/12 06:23:40;;;;;;;4.93;2.70;;;;;;;7.52;57.62;98733.28;5067794;28;20053;-70
2023/04/12 06:26:07;;;;;;;5.22;2.80;;;;;;;7.85;57.06;98723.56;5067829;28;20111;-70
2023/04/12 06:28:33;;;;;;;4.15;2.63;;;;;;;8.29;55.84;98726.41;5067952;28;20032;-70
2023/04/12 06:31:00;;;;;;;3.90;2.08;;;;;;;8.77;54.61;98732.47;5067400;28;20049;-70
2023/04/12 06:33:28;;;;;;;3.20;2.15;;;;;;;9.21;53.64;98719.31;5067617;28;20293;-70
2023/04/12 06:35:55;;;;;;;4.90;2.40;;;;;;;9.61;52.59;98711.66;5067399;28;20055;-70
2023/04/12 06:38:21;;;;;;;4.13;2.47;;;;;;;10.02;51.94;98711.72;5067742;28;20103;-70
2023/04/12 06:40:48;;;;;;;4.15;2.40;;;;;;;10.23;51.09;98672.44;5067092;28;20051;-70
2023/04/12 06:43:19;;;;;;;4.63;2.63;;;;;;;10.01;49.67;98579.47;5066902;28;20335;-70
2023/04/12 06:45:45;;;;;;;3.90;2.88;;;;;;;11.13;49.35;98700.94;5067686;28;20049;-70
2023/04/12 06:48:12;;;;;;;4.70;2.30;;;;;;;11.40;48.85;98703.53;5067648;28;20040;-70
2023/04/12 06:50:40;;;;;;;4.38;2.55;;;;;;;11.68;48.40;98686.53;5066979;28;20051;-70
2023/04/12 06:53:07;;;;;;;4.45;2.72;;;;;;;11.98;47.84;98686.16;5066677;28;20265;-70
2023/04/12 06:55:34;;;;;;;5.78;2.35;;;;;;;12.22;47.20;98680.97;5066887;28;20315;-70
2023/04/12 06:58:01;;;;;;;6.63;2.90;;;;;;;12.50;47.19;98686.81;5067075;28;20079;-70
2023/04/12 07:00:27;;;;;;;4.60;3.17;;;;;;;12.77;46.43;98685.72;5066709;28;20052;-70
2023/04/12 07:02:54;;;;;;;3.80;2.55;;;;;;;13.00;46.33;98681.34;5066920;28;20044;-70
2023/04/12 07:05:21;;;;;;;4.20;2.60;;;;;;;13.21;46.26;98674.38;5066670;28;20045;-70
2023/04/12 07:07:49;;;;;;;5.30;2.22;;;;;;;12.12;45.76;98450.53;5066982;28;20197;-70
2023/04/12 07:10:16;;;;;;;6.00;2.80;;;;;;;13.54;45.06;98656.81;5066855;28;20037;-70
2023/04/12 07:12:42;;;;;;;3.65;2.22;;;;;;;13.42;44.76;98622.19;5066793;28;20307;-70
2023/04/12 07:15:10;;;;;;;3.80;2.40;;;;;;;13.48;44.91;98620.88;5067042;28;20059;-70
2023/04/12 07:17:36;;;;;;;3.97;2.28;;;;;;;13.53;44.57;98602.72;5066943;28;20239;-70
2023/04/12 07:20:03;;;;;;;4.60;2.58;;;;;;;13.94;44.39;98642.03;5066259;28;20045;-68
2023/04/12 07:22:30;;;;;;;3.90;2.25;;;;;;;14.08;44.34;98635.59;5066579;28;20051;-68
2023/04/12 07:24:58;;;;;;;4.22;2.03;;;;;;;14.25;44.15;98628.88;5066316;28;20059;-70
2023/04/12 07:27:25;;;;;;;5.45;2.47;;;;;;;14.51;44.25;98638.25;5066230;28;20045;-68
2023/04/12 07:29:51;;;;;;;3.53;2.65;;;;;;;14.51;44.06;98634.75;5066043;28;20037;-70
2023/04/12 07:32:18;;;;;;;3.45;1.90;;;;;;;14.60;44.01;98626.91;5066140;28;20103;-70
2023/04/12 07:34:45;;;;;;;3.55;2.35;;;;;;;14.80;43.09;98627.91;5066630;28;20040;-70
2023/04/12 07:37:12;;;;;;;5.55;2.92;;;;;;;14.94;43.05;98614.25;5065972;28;20072;-73
2023/04/12 07:39:39;;;;;;;3.55;2.03;;;;;;;14.98;42.05;98590.81;5065753;28;20071;-73
2023/04/12 07:42:07;;;;;;;6.70;2.55;;;;;;;15.23;41.73;98606.41;5065826;28;20064;-73
2023/04/12 07:44:34;;;;;;;5.38;2.40;;;;;;;15.40;41.88;98596.94;5066228;28;20041;-73
2023/04/12 07:47:00;;;;;;;5.68;2.88;;;;;;;15.56;41.78;98597.31;5065555;28;20038;-73
2023/04/12 07:49:27;;;;;;;3.85;2.58;;;;;;;15.77;41.15;98596.44;5065875;28;20051;-70
2023/04/12 07:51:54;;;;;;;6.40;3.33;;;;;;;15.85;40.90;98596.59;5065940;28;20056;-70
2023/04/12 07:54:20;;;;;;;5.07;2.70;;;;;;;15.44;40.99;98547.63;5065560;28;20048;-70
2023/04/12 07:56:58;;;;;;;7.90;3.15;;;;;;;12.86;36.40;98089.41;5065920;28;20216;-71
2023/04/12 07:59:26;;;;;;;5.60;2.75;;;;;;;15.39;40.12;98526.69;5066960;28;20146;-71
2023/04/12 08:01:53;;;;;;;5.40;2.80;;;;;;;15.63;40.48;98539.69;5066527;28;20040;-71
2023/04/12 08:04:19;;;;;;;4.68;3.15;;;;;;;15.41;40.44;98486.50;5065658;28;20201;-70
2023/04/12 08:06:46;;;;;;;6.93;2.70;;;;;;;16.23;39.66;98585.97;5066353;28;20040;-70
2023/04/12 08:09:13;;;;;;;7.63;3.63;;;;;;;16.13;39.33;98550.38;5065879;28;20200;-71
2023/04/12 08:11:40;;;;;;;4.20;2.70;;;;;;;16.42;38.95;98576.28;5066587;28;20045;-70
2023/04/12 08:14:06;;;;;;;6.65;4.18;;;;;;;16.42;38.62;98541.53;5065129;28;20044;-71
2023/04/12 08:16:34;;;;;;;6.63;3.40;;;;;;;16.68;38.42;98572.09;5064958;28;20041;-71
2023/04/12 08:19:01;;;;;;;4.28;2.78;;;;;;;16.73;38.15;98566.31;5065308;28;20289;-70
2023/04/12 08:21:28;;;;;;;4.63;2.75;;;;;;;16.80;38.39;98552.22;5066392;28;20108;-70
2023/04/12 08:23:55;;;;;;;8.23;3.03;;;;;;;17.03;37.83;98567.97;5065138;28;20199;-70
2023/04/12 08:26:22;;;;;;;5.60;3.03;;;;;;;17.13;37.65;98561.59;5065195;28;20041;-70
2023/04/12 08:28:48;;;;;;;5.60;3.30;;;;;;;17.23;37.37;98557.09;5065122;28;20111;-70
2023/04/12 08:31:15;;;;;;;5.53;3.28;;;;;;;17.16;36.80;98537.22;5065444;28;20091;-70
2023/04/12 08:33:43;;;;;;;5.85;3.17;;;;;;;17.19;37.02;98552.97;5065396;28;20091;-70
2023/04/12 08:36:10;;;;;;;5.70;3.40;;;;;;;16.88;37.70;98562.22;5065414;28;20319;-70
2023/04/12 08:38:37;;;;;;;5.43;3.33;;;;;;;16.69;38.09;98560.41;5065181;28;20040;-70
2023/04/12 08:41:04;;;;;;;4.97;2.97;;;;;;;16.71;37.83;98557.59;5065448;28;20041;-70
2023/04/12 08:43:33;;;;;;;4.97;3.03;;;;;;;16.75;37.10;98548.28;5065081;28;20060;-70
2023/04/12 08:46:00;;;;;;;4.43;2.80;;;;;;;16.71;37.61;98544.22;5065497;28;20289;-70
2023/04/12 08:48:28;;;;;;;4.30;2.38;;;;;;;16.60;37.65;98535.31;5065208;28;20048;-70
2023/04/12 08:50:57;;;;;;;5.47;3.00;;;;;;;16.50;37.25;98539.00;5065392;28;20029;-70
2023/04/12 08:53:23;;;;;;;5.90;2.95;;;;;;;16.44;37.28;98536.88;5065121;28;20269;-70
2023/04/12 08:55:50;;;;;;;4.38;3.10;;;;;;;16.39;37.18;98531.09;5065052;28;20362;-71
2023/04/12 08:58:17;;;;;;;4.18;2.28;;;;;;;16.52;36.93;98520.97;5065215;28;20108;-71
2023/04/12 09:00:45;;;;;;;6.80;3.25;;;;;;;16.67;36.30;98516.91;5067994;28;20160;-71
2023/04/12 09:03:11;;;;;;;4.47;2.65;;;;;;;16.76;36.20;98510.69;5068909;28;20044;-71
2023/04/12 09:05:38;;;;;;;4.22;2.40;;;;;;;16.96;35.59;98515.00;5068982;28;20045;-70
2023/04/12 09:08:06;;;;;;;6.75;3.67;;;;;;;17.00;35.20;98513.72;5069015;28;20068;-70
2023/04/12 09:10:35;;;;;;;5.40;3.10;;;;;;;16.93;35.75;98493.03;5069003;28;20103;-71
2023/04/12 09:13:02;;;;;;;5.65;2.80;;;;;;;17.04;35.75;98498.22;5068945;28;20374;-69
2023/04/12 09:15:29;;;;;;;6.65;2.92;;;;;;;16.99;35.55;98497.81;5068926;28;20041;-71
2023/04/12 09:18:07;;;;;;;4.43;2.83;;;;;;;16.88;32.25;98487.28;5068665;28;20037;-70
2023/04/12 09:20:34;;;;;;;4.93;2.92;;;;;;;16.76;35.77;98483.94;5069202;28;20308;-70
2023/04/12 09:23:01;;;;;;;6.05;3.05;;;;;;;16.04;36.12;98394.38;5068761;28;20040;-70
2023/04/12 09:25:38;;;;;;;4.85;3.10;;;;;;;16.52;32.41;98483.53;5068872;28;20163;-71
2023/04/12 09:28:18;;;;;;;4.28;2.97;;;;;;;16.32;36.03;98448.78;5068601;28;20040;-71
2023/04/12 09:30:50;;;;;;;8.35;3.20;;;;;;;16.52;36.08;98472.81;5069054;28;20270;-71
2023/04/12 09:33:17;;;;;;;4.78;2.80;;;;;;;16.45;35.41;98464.53;5068346;28;20051;-71
2023/04/12 09:35:44;;;;;;;5.30;3.30;;;;;;;16.26;35.46;98427.13;5068647;28;20052;-71
2023/04/12 09:38:11;;;;;;;5.25;3.10;;;;;;;16.38;35.25;98454.56;5068320;28;20040;-70
2023/04/12 09:40:39;;;;;;;4.43;2.95;;;;;;;15.31;34.61;98282.75;5068515;28;20076;-71
2023/04/12 09:43:06;;;;;;;7.00;3.33;;;;;;;16.36;34.89;98452.88;5068036;28;20335;-71
2023/04/12 09:45:36;;;;;;;7.53;3.20;;;;;;;16.29;34.80;98438.38;5068555;28;20049;-71
2023/04/12 09:48:03;;;;;;;7.20;2.63;;;;;;;16.17;34.21;98447.53;5068186;28;20041;-70
2023/04/12 09:50:32;;;;;;;5.65;2.80;;;;;;;16.03;34.16;98440.78;5068179;28;20032;-71
2023/04/12 09:53:00;;;;;;;5.25;2.50;;;;;;;15.64;34.19;98389.13;5068105;28;20116;-70
2023/04/12 09:55:28;;;;;;;5.10;2.83;;;;;;;15.05;34.46;98315.31;5068003;28;20044;-70
2023/04/12 09:57:56;;;;;;;5.70;3.03;;;;;;;15.73;34.20;98424.88;5068522;28;20040;-70
2023/04/12 10:00:25;;;;;;;4.13;2.83;;;;;;;15.35;34.53;98378.44;5068438;28;20067;-70
2023/04/12 10:02:53;;;;;;;6.22;2.60;;;;;;;15.63;34.38;98426.69;5068389;28;20166;-70
2023/04/12 10:05:21;;;;;;;7.43;2.78;;;;;;;15.58;33.81;98426.25;5068162;28;20091;-70
2023/04/12 10:07:49;;;;;;;6.20;2.60;;;;;;;15.41;33.86;98443.78;5067994;28;20193;-70
2023/04/12 10:10:18;;;;;;;4.75;2.13;;;;;;;15.35;33.53;98415.81;5068049;28;20037;-70
2023/04/12 10:12:46;;;;;;;4.38;2.50;;;;;;;15.33;34.08;98419.59;5067596;28;20064;-70
2023/04/12 10:15:16;;;;;;;4.50;2.63;;;;;;;15.11;33.51;98414.47;5067591;28;20053;-70
2023/04/12 10:17:45;;;;;;;4.03;2.40;;;;;;;14.87;34.81;98402.31;5067700;28;20149;-70
2023/04/12 10:20:12;;;;;;;4.25;2.53;;;;;;;14.73;35.03;98408.03;5067749;28;20041;-69
2023/04/12 10:22:40;;;;;;;4.68;2.45;;;;;;;14.66;35.05;98401.53;5067942;28;20201;-70
2023/04/12 10:25:11;;;;;;;10.35;3.67;;;;;;;14.47;34.29;98391.53;5067600;28;20041;-70
2023/04/12 10:27:40;;;;;;;4.78;2.50;;;;;;;14.49;35.53;98396.75;5067618;28;20045;-71
2023/04/12 10:30:22;;;;;;;3.72;2.63;;;;;;;14.28;32.85;98399.44;5067086;28;20060;-70
2023/04/12 10:33:11;;;;;;;6.22;2.80;;;;;;;14.07;35.97;98391.44;5067504;28;20285;-70
2023/04/12 10:35:59;;;;;;;3.67;2.55;;;;;;;13.12;33.73;98247.63;5067293;28;20047;-70
2023/04/12 10:38:31;;;;;;;5.13;2.38;;;;;;;14.03;35.65;98382.03;5067231;28;20041;-70
2023/04/12 10:41:11;;;;;;;6.45;2.70;;;;;;;14.01;33.73;98395.47;5067336;28;20037;-70
2023/04/12 10:43:37;;;;;;;5.07;2.70;;;;;;;13.93;36.00;98397.94;5066988;28;20057;-70
2023/04/12 10:46:06;;;;;;;5.22;2.97;;;;;;;13.90;35.66;98374.22;5067334;28;20049;-70
2023/04/12 10:48:34;;;;;;;4.22;2.47;;;;;;;13.69;35.98;98346.72;5067564;28;20037;-70
2023/04/12 10:51:22;;;;;;;3.53;2.00;;;;;;;13.86;34.67;98361.28;5066751;28;20104;-70
2023/04/12 10:53:50;;;;;;;6.95;2.45;;;;;;;13.87;36.19;98358.50;5066935;28;20265;-69
2023/04/12 10:56:37;;;;;;;4.45;2.17;;;;;;;14.00;34.37;98355.63;5066854;28;20225;-69
2023/04/12 10:59:04;;;;;;;3.55;2.40;;;;;;;14.05;35.78;98350.75;5066841;28;20045;-70
2023/04/12 11:01:32;;;;;;;4.28;2.22;;;;;;;14.08;35.19;98345.19;5066660;28;20036;-69
2023/04/12 11:04:12;;;;;;;5.03;2.70;;;;;;;14.09;33.90;98352.19;5066889;28;20309;-71
2023/04/12 11:06:55;;;;;;;6.85;3.05;;;;;;;14.09;33.31;98346.88;5067206;28;20071;-69
2023/04/12 11:09:24;;;;;;;4.70;2.80;;;;;;;13.71;35.16;98292.38;5067077;28;20040;-69
2023/04/12 11:11:51;;;;;;;4.43;2.15;;;;;;;14.17;35.47;98333.72;5066729;28;20248;-72
2023/04/12 11:14:23;;;;;;;6.72;2.72;;;;;;;14.29;35.43;98350.47;5066870;28;20047;-69
2023/04/12 11:17:23;;;;;;;5.43;2.40;;;;;;;14.36;33.11;98323.16;5066543;28;20262;-69
2023/04/12 11:19:56;;;;;;;3.58;2.22;;;;;;;14.47;34.62;98326.72;5066605;28;20037;-70
2023/04/12 11:22:24;;;;;;;4.78;2.90;;;;;;;14.61;34.48;98331.75;5066109;28;20095;-69
2023/04/12 11:24:53;;;;;;;4.70;2.28;;;;;;;14.66;34.78;98325.03;5066501;28;20044;-69
2023/04/12 11:27:21;;;;;;;4.82;3.03;;;;;;;14.65;34.49;98319.84;5066362;28;20041;-70
2023/04/12 11:29:50;;;;;;;6.45;2.67;;;;;;;14.68;34.32;98331.06;5066245;28;20187;-69
2023/04/12 11:32:18;;;;;;;5.50;2.30;;;;;;;14.60;33.94;98290.91;5066630;28;20045;-70
2023/04/12 11:34:47;;;;;;;6.35;2.83;;;;;;;14.89;33.79;98301.66;5066222;28;20059;-70
2023/04/12 11:37:14;;;;;;;7.32;3.58;;;;;;;14.95;33.62;98281.59;5066491;28;20064;-70
2023/04/12 11:39:43;;;;;;;4.35;2.35;;;;;;;14.98;33.21;98290.16;5066246;28;20044;-69
2023/04/12 11:42:15;;;;;;;4.70;2.47;;;;;;;14.94;32.30;98286.09;5065816;28;20049;-69
2023/04/12 11:44:43;;;;;;;5.65;2.67;;;;;;;15.00;33.39;98295.34;5066076;28;20056;-69